Pagina principale
METAR-TAF:

METAR-TAF

Aeroporti :

Aeroporto di Sármellék

Hévíz, Ungheria

latitudine: 46-41-11N, longitudine: 017-09-33E, altezza: 124 m

Osservazione

Il bollettino è stato emesso 30 minuti fa, alle 01:45 UTC
Vento 3 kt da sud/sud-est, variando fra est/sud-est e sud
Temperature 11°C
Umidità 100%
Pressione 1013 hPa
Visibilità: 8000 m

METAR: LHSM 160145Z AUTO 15003KT 110V170 8000 NCD 11/11 Q1013

Ora: 04:15 (02:15 UTC)

Previsione

Il bollettino è stato emesso 15 ore e 0 minuti fa, alle 11:15 UTC
Previsione valida dal 15 alle 12 UTC al 15 alle 21 UTC
Vento 14 kt da sud/sud-ovest
Visibilità 10 km o più
nessuna nube inferiore a 1500 m e nessun cumulonembo
Temporaneamente
dal 15 alle 12 UTC al 15 alle 15 UTC
Vento 14 kt da sud/sud-ovest con raffiche fino a 24 kt
Evoluzione graduale
dal 15 alle 16 UTC al 15 alle 19 UTC
Vento 8 kt da sud/sud-ovest

TAF: LHSM 151115Z 1512/1521 20014KT CAVOK TEMPO 1512/1515 20014G24KT BECMG 1516/1519 20008KT

Osservazioni e previsioni meteorologiche di più di 4000 aeroporti (messaggi METAR e TAF).

Le stazioni disponibili sono rappresentate dai dischi gialli e rossi sulla carta.

Puntare il mouse per vedere il nome della stazione.

Clicca sopra per visualizzare le osservazioni e previsioni meteorologiche.

Per cambiare la mappa : fare clic sui pulsanti verdi con una croce nera per ingrandire, il pulsante verde con un trattino per diminuire, o sulla freccia verde per le mappe adiacenti.


METAR-TAF: